Time;durP1;ratioP1;P1;durP2;ratioP2;P2;SDS_P1;SDS_P2;PMS_P1;PMS_P2;Temp;Humidity;BMP_temperature;BMP_pressure;BME280_temperature;BME280_humidity;BME280_pressure;Samples;Min_cycle;Max_cycle;Signal;HPM_P1;HPM_P2
2021/01/25 00:00:02;;;;;;;11.18;4.38;;;307.80;1740.80;;;;;;5112350;28;20494;-69
2021/01/25 00:02:28;;;;;;;8.13;4.13;;;307.80;1740.80;;;;;;5114174;28;20024;-69
2021/01/25 00:04:53;;;;;;;7.05;3.08;;;307.70;1740.80;;;;;;5114125;28;20027;-69
2021/01/25 00:07:19;;;;;;;9.52;4.70;;;307.70;1740.80;;;;;;5111949;27;20022;-72
2021/01/25 00:09:45;;;;;;;9.75;4.10;;;307.70;1766.40;;;;;;5095892;28;20039;-69
2021/01/25 00:12:10;;;;;;;5.95;2.97;;;307.70;1766.40;;;;;;5119279;27;20034;-71
2021/01/25 00:14:36;;;;;;;8.15;3.35;;;307.70;1766.40;;;;;;5113953;28;20069;-69
2021/01/25 00:17:02;;;;;;;5.88;2.88;;;307.70;1740.80;;;;;;5114311;28;20027;-70
2021/01/25 00:19:27;;;;;;;7.18;3.50;;;307.70;1740.80;;;;;;5113679;28;20437;-69
2021/01/25 00:21:53;;;;;;;6.75;3.55;;;307.70;1766.40;;;;;;5113212;28;20049;-69
2021/01/25 00:24:18;;;;;;;7.78;3.60;;;307.70;1766.40;;;;;;5113724;28;20019;-69
2021/01/25 00:26:44;;;;;;;8.38;4.22;;;307.60;1766.40;;;;;;5113684;28;20119;-70
2021/01/25 00:29:09;;;;;;;6.70;3.75;;;307.60;1766.40;;;;;;5113790;28;20075;-69
2021/01/25 00:31:35;;;;;;;6.28;3.40;;;307.60;1792.00;;;;;;5113863;28;20452;-69
2021/01/25 00:34:01;;;;;;;6.05;3.00;;;307.60;1766.40;;;;;;5113852;28;20039;-71
2021/01/25 00:36:26;;;;;;;6.32;3.58;;;307.60;1766.40;;;;;;5114251;27;20019;-69
2021/01/25 00:38:52;;;;;;;6.32;3.17;;;307.60;1792.00;;;;;;5113976;28;20481;-70
2021/01/25 00:41:18;;;;;;;9.18;4.15;;;307.50;1792.00;;;;;;5113662;28;20023;-70
2021/01/25 00:43:45;;;;;;;8.43;4.40;;;307.50;1792.00;;;;;;5113710;28;20020;-70
2021/01/25 00:46:12;;;;;;;5.95;3.17;;;307.40;1792.00;;;;;;5113918;28;20051;-70
2021/01/25 00:48:37;;;;;;;5.50;2.30;;;307.40;1792.00;;;;;;5113450;28;20022;-70
2021/01/25 00:51:03;;;;;;;5.93;3.47;;;307.40;1792.00;;;;;;5113395;28;20375;-70
2021/01/25 00:53:29;;;;;;;6.40;3.05;;;307.40;1817.60;;;;;;5095245;28;20484;-69
2021/01/25 00:55:55;;;;;;;3.85;1.95;;;307.30;1817.60;;;;;;5113568;28;20054;-70
2021/01/25 00:58:20;;;;;;;6.75;3.17;;;307.30;1817.60;;;;;;5113706;28;20057;-70
2021/01/25 01:00:46;;;;;;;5.40;2.58;;;307.30;1817.60;;;;;;5113499;28;20019;-70
2021/01/25 01:03:12;;;;;;;4.65;2.22;;;307.20;1817.60;;;;;;5113524;28;20019;-69
2021/01/25 01:05:37;;;;;;;4.10;2.00;;;307.20;1792.00;;;;;;5113194;28;20016;-70
2021/01/25 01:08:03;;;;;;;6.95;3.15;;;307.20;1817.60;;;;;;5113486;28;20027;-69
2021/01/25 01:10:29;;;;;;;4.78;2.00;;;282.50;1792.00;;;;;;5113141;28;20024;-70
2021/01/25 01:12:54;;;;;;;4.10;1.83;;;282.50;1792.00;;;;;;5113277;28;20433;-70
2021/01/25 01:15:20;;;;;;;2.97;1.50;;;282.50;1766.40;;;;;;5113219;28;20098;-69
2021/01/25 01:17:46;;;;;;;5.15;1.92;;;282.50;1740.80;;;;;;5094768;28;20053;-69
2021/01/25 01:20:12;;;;;;;6.43;2.00;;;282.40;1766.40;;;;;;5113160;28;20028;-70
2021/01/25 01:22:37;;;;;;;7.28;2.92;;;282.40;1766.40;;;;;;5094658;28;20024;-70
2021/01/25 01:25:07;;;;;;;5.82;2.28;;;282.40;1766.40;;;;;;5094965;28;20028;-69
2021/01/25 01:27:33;;;;;;;4.18;1.80;;;282.40;1766.40;;;;;;5113506;28;20520;-69
2021/01/25 01:29:59;;;;;;;6.07;2.47;;;282.40;1740.80;;;;;;5095053;28;20069;-69
2021/01/25 01:32:24;;;;;;;2.75;1.27;;;282.40;1740.80;;;;;;5113026;28;20460;-69
2021/01/25 01:34:50;;;;;;;2.92;1.48;;;282.40;1715.20;;;;;;5112727;28;20030;-69
2021/01/25 01:37:15;;;;;;;3.53;1.60;;;282.40;1740.80;;;;;;5113726;28;20073;-70
2021/01/25 01:39:41;;;;;;;2.90;1.40;;;282.40;1740.80;;;;;;5112683;28;20023;-67
2021/01/25 01:42:13;;;;;;;4.25;1.90;;;282.40;1715.20;;;;;;5112823;28;20028;-70
2021/01/25 01:44:38;;;;;;;1.77;1.10;;;282.40;1715.20;;;;;;5112594;28;20024;-69
2021/01/25 01:47:04;;;;;;;2.75;1.20;;;282.40;1715.20;;;;;;5112676;28;20392;-70
2021/01/25 01:49:30;;;;;;;1.58;1.00;;;282.30;1740.80;;;;;;5094747;28;20020;-70
2021/01/25 01:51:55;;;;;;;1.58;1.10;;;282.30;1715.20;;;;;;5094580;28;20038;-70
2021/01/25 01:54:21;;;;;;;2.67;0.90;;;282.30;1715.20;;;;;;5112632;28;20031;-69
2021/01/25 01:56:46;;;;;;;1.00;0.80;;;282.00;1945.60;;;;;;5094532;28;20388;-71
2021/01/25 01:59:12;;;;;;;1.35;0.90;;;281.90;1868.80;;;;;;5094506;28;20504;-69
2021/01/25 02:01:38;;;;;;;1.05;0.90;;;281.90;1894.40;;;;;;5112501;28;20027;-69
2021/01/25 02:04:03;;;;;;;1.52;1.00;;;281.90;1920.00;;;;;;5112289;28;20027;-70
2021/01/25 02:06:29;;;;;;;1.83;1.00;;;281.90;1843.20;;;;;;5109502;28;20035;-70
2021/01/25 02:08:56;;;;;;;1.58;1.05;;;281.90;1843.20;;;;;;5090594;28;20103;-69
2021/01/25 02:11:21;;;;;;;1.70;1.02;;;281.90;1817.60;;;;;;5094460;28;20401;-69
2021/01/25 02:13:47;;;;;;;2.50;1.20;;;281.90;1817.60;;;;;;5083899;28;20031;-69
2021/01/25 02:16:13;;;;;;;2.97;1.75;;;281.90;1817.60;;;;;;5077436;28;20039;-69
2021/01/25 02:18:38;;;;;;;3.03;1.20;;;281.90;1817.60;;;;;;5112398;28;20538;-69
2021/01/25 02:21:05;;;;;;;1.98;1.17;;;281.90;1817.60;;;;;;5112391;28;20126;-69
2021/01/25 02:23:49;;;;;;;1.63;1.10;;;281.90;1817.60;;;;;;5076546;28;20015;-70
2021/01/25 02:26:32;;;;;;;1.45;1.00;;;281.90;1817.60;;;;;;5112173;28;20056;-69
2021/01/25 02:28:58;;;;;;;1.17;0.90;;;281.90;1817.60;;;;;;5112060;28;20557;-70
2021/01/25 02:31:23;;;;;;;2.47;1.20;;;281.90;1817.60;;;;;;5093859;28;20051;-69
2021/01/25 02:33:53;;;;;;;3.00;1.60;;;281.90;1817.60;;;;;;5077182;28;20030;-70
2021/01/25 02:36:19;;;;;;;3.30;1.45;;;281.90;1843.20;;;;;;5095505;28;20019;-69
2021/01/25 02:38:47;;;;;;;4.35;1.35;;;256.50;1664.00;;;;;;5094047;28;20501;-69
2021/01/25 02:41:13;;;;;;;2.20;1.30;;;230.90;1740.80;;;;;;5093803;28;20031;-69
2021/01/25 02:43:40;;;;;;;5.43;1.30;;;205.60;1792.00;;;;;;5093566;28;20073;-69
2021/01/25 02:46:07;;;;;;;3.08;1.30;;;205.10;1868.80;;;;;;5114366;28;20024;-69
2021/01/25 02:48:33;;;;;;;3.38;1.45;;;180.00;1971.20;;;;;;5097577;28;20104;-70
2021/01/25 02:50:59;;;;;;;2.33;1.10;;;179.60;2099.20;;;;;;5097573;28;20023;-69
2021/01/25 02:53:24;;;;;;;2.38;1.27;;;154.50;2150.40;;;;;;5115608;28;20114;-68
2021/01/25 02:55:50;;;;;;;1.42;1.13;;;154.40;2150.40;;;;;;5115673;28;20022;-69
2021/01/25 02:58:16;;;;;;;1.42;1.02;;;154.10;2176.00;;;;;;5096448;28;20047;-69
2021/01/25 03:00:41;;;;;;;1.98;1.05;;;153.90;2176.00;;;;;;5097322;28;20016;-69
2021/01/25 03:03:07;;;;;;;1.45;1.00;;;153.70;2150.40;;;;;;5097409;28;20019;-70
2021/01/25 03:05:32;;;;;;;1.40;1.00;;;128.90;2176.00;;;;;;5080280;28;20027;-70
2021/01/25 03:07:58;;;;;;;1.65;1.17;;;128.70;2176.00;;;;;;5097359;28;20023;-70
2021/01/25 03:10:24;;;;;;;1.63;1.10;;;128.70;2201.60;;;;;;5115269;28;20048;-70
2021/01/25 03:12:49;;;;;;;1.98;1.38;;;128.70;2201.60;;;;;;5080048;28;20102;-69
2021/01/25 03:15:17;;;;;;;1.38;1.00;;;128.60;2227.20;;;;;;5096876;28;20408;-69
2021/01/25 03:17:43;;;;;;;1.40;0.93;;;128.50;2176.00;;;;;;5079938;28;20031;-69
2021/01/25 03:20:09;;;;;;;1.88;1.20;;;128.40;2176.00;;;;;;5115340;28;20408;-69
2021/01/25 03:22:35;;;;;;;1.45;1.08;;;128.40;2201.60;;;;;;5113909;28;20047;-70
2021/01/25 03:25:00;;;;;;;2.70;1.40;;;128.40;2176.00;;;;;;5112664;27;20031;-69
2021/01/25 03:27:27;;;;;;;2.72;1.20;;;128.40;2176.00;;;;;;5114075;28;20135;-69
2021/01/25 03:29:53;;;;;;;2.33;1.30;;;128.30;2176.00;;;;;;5113943;28;20030;-70
2021/01/25 03:32:19;;;;;;;1.70;1.20;;;128.40;2176.00;;;;;;5114843;28;20129;-69
2021/01/25 03:34:44;;;;;;;3.50;1.50;;;128.20;2150.40;;;;;;5114557;28;20091;-69
2021/01/25 03:37:10;;;;;;;3.75;1.67;;;128.30;2150.40;;;;;;5126407;27;20015;-69
2021/01/25 03:39:36;;;;;;;3.25;1.70;;;128.20;2150.40;;;;;;5116679;27;20035;-70
2021/01/25 03:42:01;;;;;;;3.63;1.90;;;128.10;2124.80;;;;;;5114792;28;20392;-69
2021/01/25 03:44:27;;;;;;;1.83;1.23;;;128.30;2124.80;;;;;;5114609;28;20098;-70
2021/01/25 03:46:53;;;;;;;4.10;1.83;;;128.30;2124.80;;;;;;5113698;27;20039;-69
2021/01/25 03:49:18;;;;;;;2.50;1.40;;;128.30;2124.80;;;;;;5116995;27;20094;-69
2021/01/25 03:51:44;;;;;;;2.67;1.33;;;128.30;2099.20;;;;;;5114303;28;20050;-70
2021/01/25 03:54:11;;;;;;;1.58;1.10;;;128.40;2099.20;;;;;;5114456;28;20090;-69
2021/01/25 03:56:37;;;;;;;2.80;1.30;;;128.10;2124.80;;;;;;5106904;28;20035;-69
2021/01/25 03:59:02;;;;;;;2.20;1.40;;;128.00;2124.80;;;;;;5121021;27;20537;-70
2021/01/25 04:01:28;;;;;;;1.73;1.10;;;128.10;2073.60;;;;;;5108096;28;20080;-70
2021/01/25 04:03:54;;;;;;;1.70;1.13;;;128.00;2099.20;;;;;;5114156;28;20375;-69
2021/01/25 04:06:19;;;;;;;2.50;1.50;;;103.30;2073.60;;;;;;5114218;28;20031;-70
2021/01/25 04:08:45;;;;;;;2.28;1.30;;;128.00;2124.80;;;;;;5113977;28;20475;-69
2021/01/25 04:11:10;;;;;;;2.35;1.30;;;103.30;2073.60;;;;;;5112898;28;20051;-69
2021/01/25 04:13:36;;;;;;;2.15;1.20;;;103.20;2073.60;;;;;;5111562;28;20094;-69
2021/01/25 04:16:02;;;;;;;2.05;1.23;;;103.20;2099.20;;;;;;5114207;28;20088;-70
2021/01/25 04:18:27;;;;;;;1.67;1.20;;;103.20;2073.60;;;;;;5113370;28;20037;-69
2021/01/25 04:20:53;;;;;;;3.70;2.03;;;103.10;2073.60;;;;;;5113769;28;20031;-69
2021/01/25 04:23:18;;;;;;;2.20;1.40;;;103.10;2073.60;;;;;;5113791;28;20018;-69
2021/01/25 04:25:44;;;;;;;3.47;1.70;;;103.10;2073.60;;;;;;5113338;28;20394;-70
2021/01/25 04:28:10;;;;;;;1.40;1.10;;;103.10;2099.20;;;;;;5113755;28;20026;-70
2021/01/25 04:30:35;;;;;;;2.22;1.45;;;103.10;2099.20;;;;;;5113539;28;20090;-69
2021/01/25 04:33:01;;;;;;;1.65;1.20;;;103.10;2099.20;;;;;;5113460;28;20022;-69
2021/01/25 04:35:27;;;;;;;1.88;1.27;;;103.00;2073.60;;;;;;5113407;28;20022;-70
2021/01/25 04:37:53;;;;;;;2.65;1.45;;;103.10;2073.60;;;;;;5127665;27;20023;-69
2021/01/25 04:40:18;;;;;;;1.65;1.10;;;103.00;2073.60;;;;;;5113452;28;20049;-69
2021/01/25 04:42:44;;;;;;;2.42;1.40;;;103.00;2073.60;;;;;;5113743;28;20380;-68
2021/01/25 04:45:11;;;;;;;1.85;1.35;;;103.00;2048.00;;;;;;5113953;28;20035;-70
2021/01/25 04:47:47;;;;;;;3.28;1.30;;;103.00;2073.60;;;;;;5095357;28;20019;-69
2021/01/25 04:50:15;;;;;;;1.75;1.20;;;103.00;2073.60;;;;;;5095256;28;20107;-68
2021/01/25 04:52:40;;;;;;;3.05;1.60;;;103.00;2073.60;;;;;;5095060;28;20023;-69
2021/01/25 04:55:07;;;;;;;2.78;1.50;;;103.00;2073.60;;;;;;5094840;28;20019;-69
2021/01/25 04:57:33;;;;;;;2.65;1.52;;;102.90;2099.20;;;;;;5113169;28;20032;-69
2021/01/25 05:00:01;;;;;;;2.40;1.50;;;102.90;2099.20;;;;;;5113324;28;20026;-69
2021/01/25 05:02:26;;;;;;;2.47;1.40;;;102.90;2124.80;;;;;;5112863;28;20034;-69
2021/01/25 05:04:52;;;;;;;2.50;1.50;;;102.90;2124.80;;;;;;5094883;28;20144;-69
2021/01/25 05:07:17;;;;;;;2.72;1.40;;;102.90;2124.80;;;;;;5094843;28;20023;-69
2021/01/25 05:09:43;;;;;;;2.38;1.40;;;102.80;2150.40;;;;;;5094679;28;20107;-69
2021/01/25 05:12:09;;;;;;;2.40;1.40;;;102.80;2176.00;;;;;;5112708;28;20027;-69
2021/01/25 05:14:42;;;;;;;3.33;1.30;;;102.70;2176.00;;;;;;5113111;28;20083;-68
2021/01/25 05:17:08;;;;;;;2.65;1.48;;;102.60;2201.60;;;;;;5113053;28;20016;-69
2021/01/25 05:19:35;;;;;;;2.33;1.40;;;102.60;2201.60;;;;;;5095192;28;20434;-68
2021/01/25 05:22:01;;;;;;;2.20;1.38;;;102.60;2201.60;;;;;;5095193;28;20036;-68
2021/01/25 05:24:27;;;;;;;2.40;1.45;;;102.60;2201.60;;;;;;5112922;28;20045;-69
2021/01/25 05:26:57;;;;;;;2.90;1.60;;;102.60;2227.20;;;;;;5112653;28;20047;-68
2021/01/25 05:29:24;;;;;;;;;;;102.40;2227.20;;;;;;5113382;28;20365;-69
2021/01/25 05:31:52;;;;;;;2.92;1.60;;;102.40;2227.20;;;;;;5113046;28;20427;-69
2021/01/25 05:34:21;;;;;;;2.55;1.50;;;77.70;2227.20;;;;;;5113071;28;20059;-69
2021/01/25 05:36:47;;;;;;;2.53;1.60;;;77.60;2227.20;;;;;;5086200;27;20023;-69
2021/01/25 05:39:19;;;;;;;2.92;1.73;;;77.60;2227.20;;;;;;5100084;28;20023;-69
2021/01/25 05:41:54;;;;;;;2.95;1.55;;;77.70;2227.20;;;;;;5112774;28;20051;-69
2021/01/25 05:44:20;;;;;;;3.25;1.80;;;77.70;2227.20;;;;;;5112588;28;20032;-69
2021/01/25 05:46:46;;;;;;;3.05;1.70;;;102.40;2227.20;;;;;;5112668;28;20073;-69
2021/01/25 05:49:11;;;;;;;2.60;1.55;;;102.40;2227.20;;;;;;5078088;28;20031;-69
2021/01/25 05:51:39;;;;;;;3.85;2.00;;;77.70;2227.20;;;;;;5112735;28;20020;-69
2021/01/25 05:54:05;;;;;;;3.22;1.90;;;102.40;2227.20;;;;;;5112673;28;20047;-68
2021/01/25 05:56:30;;;;;;;3.03;1.70;;;102.40;2227.20;;;;;;5094408;28;20077;-69
2021/01/25 05:58:56;;;;;;;3.13;1.95;;;77.70;2227.20;;;;;;5112150;28;20460;-68
2021/01/25 06:01:23;;;;;;;3.40;1.92;;;102.40;2227.20;;;;;;5112297;28;20480;-69
2021/01/25 06:03:48;;;;;;;2.60;1.60;;;102.40;2227.20;;;;;;5112586;28;20424;-69
2021/01/25 06:06:24;;;;;;;3.13;1.70;;;102.40;2227.20;;;;;;5112675;28;20035;-69
2021/01/25 06:08:52;;;;;;;2.75;1.70;;;102.40;2227.20;;;;;;5080460;28;20031;-69
2021/01/25 06:11:28;;;;;;;3.38;2.00;;;77.70;2227.20;;;;;;5112404;28;20028;-68
2021/01/25 06:13:54;;;;;;;4.10;2.00;;;77.70;2227.20;;;;;;5111705;28;20015;-68
2021/01/25 06:16:27;;;;;;;3.80;1.92;;;77.70;2227.20;;;;;;5107843;28;20124;-70
2021/01/25 06:19:04;;;;;;;3.95;2.30;;;102.40;2227.20;;;;;;5083797;28;20020;-68
2021/01/25 06:21:32;;;;;;;4.05;2.53;;;102.50;2227.20;;;;;;5098170;28;20542;-69
2021/01/25 06:24:01;;;;;;;3.28;2.10;;;102.50;2227.20;;;;;;5116008;28;20028;-69
2021/01/25 06:26:27;;;;;;;2.63;1.60;;;102.50;2227.20;;;;;;5083685;28;20565;-69
2021/01/25 06:28:53;;;;;;;2.95;1.85;;;102.50;2227.20;;;;;;5099857;28;20027;-69
2021/01/25 06:31:22;;;;;;;3.45;1.70;;;102.50;2227.20;;;;;;5081963;28;20053;-68
2021/01/25 06:33:48;;;;;;;3.38;1.75;;;102.60;2227.20;;;;;;5099100;28;20027;-70
2021/01/25 06:36:18;;;;;;;3.00;1.80;;;102.50;2227.20;;;;;;5119502;27;20015;-69
2021/01/25 06:38:46;;;;;;;2.35;1.40;;;102.50;2227.20;;;;;;5120134;27;20023;-69
2021/01/25 06:41:13;;;;;;;2.60;1.40;;;102.50;2227.20;;;;;;5100387;28;20077;-69
2021/01/25 06:43:43;;;;;;;2.20;1.35;;;102.50;2227.20;;;;;;5101636;28;20056;-69
2021/01/25 06:46:08;;;;;;;2.40;1.45;;;102.50;2227.20;;;;;;5115673;28;20019;-69
2021/01/25 06:48:34;;;;;;;2.47;1.42;;;102.50;2227.20;;;;;;5115892;28;20161;-69
2021/01/25 06:51:01;;;;;;;2.20;1.40;;;102.50;2227.20;;;;;;5103356;28;20047;-69
2021/01/25 06:53:27;;;;;;;2.88;1.52;;;102.60;2227.20;;;;;;5115579;28;20524;-69
2021/01/25 06:56:00;;;;;;;2.80;1.58;;;102.60;2227.20;;;;;;5115696;28;20110;-69
2021/01/25 06:58:28;;;;;;;2.70;1.50;;;102.60;2227.20;;;;;;5104649;28;20020;-69
2021/01/25 07:00:54;;;;;;;2.63;1.52;;;102.70;2227.20;;;;;;5108373;28;20038;-70
2021/01/25 07:03:20;;;;;;;3.22;1.70;;;102.80;2227.20;;;;;;5112574;28;20465;-69
2021/01/25 07:05:51;;;;;;;3.10;1.60;;;102.70;2227.20;;;;;;5115119;28;20047;-69
2021/01/25 07:08:26;;;;;;;2.78;1.70;;;102.90;2227.20;;;;;;5115334;28;20019;-69
2021/01/25 07:11:00;;;;;;;3.50;1.77;;;103.00;2227.20;;;;;;5115148;28;20043;-69
2021/01/25 07:13:36;;;;;;;3.22;1.92;;;102.90;2227.20;;;;;;5115023;28;20020;-69
2021/01/25 07:16:02;;;;;;;2.78;1.77;;;102.80;2227.20;;;;;;5102692;28;20019;-69
2021/01/25 07:18:28;;;;;;;3.38;1.70;;;102.90;2201.60;;;;;;5115066;28;20031;-69
2021/01/25 07:20:58;;;;;;;3.65;1.70;;;102.80;2201.60;;;;;;5114783;28;20051;-69
2021/01/25 07:23:25;;;;;;;4.78;3.55;;;102.90;2176.00;;;;;;5106613;28;20069;-69
2021/01/25 07:25:58;;;;;;;2.60;1.60;;;102.90;2150.40;;;;;;5098485;28;20070;-69
2021/01/25 07:28:25;;;;;;;4.22;2.90;;;103.00;2176.00;;;;;;5111954;28;20035;-70
2021/01/25 07:30:51;;;;;;;3.97;2.50;;;103.10;2150.40;;;;;;5110869;28;20023;-69
2021/01/25 07:33:17;;;;;;;2.80;1.90;;;103.10;2124.80;;;;;;5079219;28;20053;-70
2021/01/25 07:35:42;;;;;;;6.25;4.03;;;103.20;2150.40;;;;;;5096233;28;20389;-69
2021/01/25 07:38:08;;;;;;;4.55;2.83;;;103.30;2150.40;;;;;;5122050;27;20016;-69
2021/01/25 07:40:34;;;;;;;2.83;1.80;;;128.00;2176.00;;;;;;5113466;28;20486;-69
2021/01/25 07:43:01;;;;;;;5.15;2.95;;;128.10;2150.40;;;;;;5085981;28;20034;-69
2021/01/25 07:45:26;;;;;;;2.60;1.50;;;128.20;2150.40;;;;;;5077218;28;20384;-69
2021/01/25 07:47:52;;;;;;;2.92;1.65;;;128.10;2150.40;;;;;;5110413;28;20035;-69
2021/01/25 07:50:18;;;;;;;4.28;2.47;;;128.20;2150.40;;;;;;5086905;28;20020;-69
2021/01/25 07:52:43;;;;;;;4.20;2.85;;;128.40;2176.00;;;;;;5095291;28;20020;-69
2021/01/25 07:55:15;;;;;;;3.90;2.38;;;128.70;2176.00;;;;;;5095190;28;20044;-69
2021/01/25 07:57:44;;;;;;;7.65;4.35;;;153.60;2099.20;;;;;;5076852;28;20119;-70
2021/01/25 08:00:20;;;;;;;7.45;4.30;;;153.90;2073.60;;;;;;5090997;28;20023;-69
2021/01/25 08:03:15;;;;;;;8.20;5.68;;;154.30;2048.00;;;;;;5075690;28;20081;-69
2021/01/25 08:05:41;;;;;;;10.30;6.43;;;154.50;1996.80;;;;;;5095936;28;20343;-69
2021/01/25 08:08:12;;;;;;;11.70;7.10;;;179.30;1971.20;;;;;;5076893;28;20066;-70
2021/01/25 08:10:37;;;;;;;9.38;5.55;;;179.70;1920.00;;;;;;5073235;28;20342;-69
2021/01/25 08:13:19;;;;;;;9.70;5.90;;;179.60;1920.00;;;;;;5087744;28;20130;-70
2021/01/25 08:16:07;;;;;;;13.40;8.48;;;179.40;1971.20;;;;;;5110343;28;20044;-69
2021/01/25 08:18:52;;;;;;;16.55;9.70;;;179.20;1971.20;;;;;;5072751;28;20080;-69
2021/01/25 08:21:20;;;;;;;15.60;9.20;;;154.50;1971.20;;;;;;5088347;28;20024;-69
2021/01/25 08:23:47;;;;;;;23.20;13.27;;;154.30;1996.80;;;;;;5100310;28;20032;-70
2021/01/25 08:26:12;;;;;;;9.18;6.32;;;154.20;2022.40;;;;;;5086411;28;20046;-69
2021/01/25 08:28:41;;;;;;;10.68;7.32;;;154.10;1971.20;;;;;;5081560;28;20465;-69
2021/01/25 08:31:09;;;;;;;15.88;10.50;;;154.10;1971.20;;;;;;5080443;28;20036;-69
2021/01/25 08:33:36;;;;;;;17.75;10.95;;;154.10;1996.80;;;;;;5094085;28;20016;-69
2021/01/25 08:36:04;;;;;;;22.92;13.63;;;154.10;1996.80;;;;;;5100688;27;20028;-69
2021/01/25 08:38:30;;;;;;;26.15;15.15;;;154.20;2022.40;;;;;;5099214;28;20020;-68
2021/01/25 08:40:57;;;;;;;16.10;8.88;;;154.20;1996.80;;;;;;5101699;28;20023;-70
2021/01/25 08:43:27;;;;;;;19.33;9.48;;;154.20;1971.20;;;;;;5083377;28;20027;-70
2021/01/25 08:45:53;;;;;;;18.63;10.67;;;154.30;1996.80;;;;;;5107529;28;20477;-67
2021/01/25 08:48:33;;;;;;;18.60;10.88;;;154.30;1996.80;;;;;;5078133;28;20241;-70
2021/01/25 08:51:29;;;;;;;13.55;9.68;;;154.30;1996.80;;;;;;5095030;28;20028;-69
2021/01/25 08:54:21;;;;;;;21.13;13.35;;;179.20;1971.20;;;;;;5079863;28;20036;-72
2021/01/25 08:56:47;;;;;;;23.45;14.65;;;179.30;1920.00;;;;;;5112010;28;20491;-70
2021/01/25 08:59:14;;;;;;;27.20;16.38;;;179.60;1920.00;;;;;;5113248;28;20027;-69
2021/01/25 09:01:44;;;;;;;19.70;11.73;;;179.80;1920.00;;;;;;5113262;28;20035;-68
2021/01/25 09:04:10;;;;;;;10.90;6.35;;;180.00;1843.20;;;;;;5075212;28;20064;-70
2021/01/25 09:06:51;;;;;;;34.30;21.27;;;204.80;1817.60;;;;;;5092612;28;20055;-68
2021/01/25 09:09:17;;;;;;;16.20;10.30;;;204.80;1792.00;;;;;;5097878;28;20036;-66
2021/01/25 09:11:43;;;;;;;13.57;10.05;;;180.10;1817.60;;;;;;5106659;28;20055;-68
2021/01/25 09:14:09;;;;;;;16.75;10.40;;;180.10;1817.60;;;;;;5079429;28;20061;-68
2021/01/25 09:16:34;;;;;;;20.70;11.73;;;205.20;1792.00;;;;;;5111703;28;20024;-68
2021/01/25 09:19:00;;;;;;;16.23;9.80;;;230.70;1689.60;;;;;;5108807;28;20125;-69
2021/01/25 09:21:25;;;;;;;12.90;7.15;;;231.00;1664.00;;;;;;5103477;28;20077;-69
2021/01/25 09:23:51;;;;;;;8.82;5.93;;;231.10;1638.40;;;;;;5104840;28;20125;-68
2021/01/25 09:26:17;;;;;;;9.57;5.65;;;231.20;1587.20;;;;;;5107469;28;20052;-68
2021/01/25 09:28:42;;;;;;;8.90;4.70;;;256.90;1561.60;;;;;;5108301;28;20024;-69
2021/01/25 09:31:08;;;;;;;10.45;5.65;;;256.30;1510.40;;;;;;5109574;28;20039;-69
2021/01/25 09:33:34;;;;;;;15.65;7.75;;;230.90;1612.80;;;;;;5101290;28;20027;-68
2021/01/25 09:36:00;;;;;;;6.55;4.15;;;230.50;1689.60;;;;;;5100630;28;20377;-69
2021/01/25 09:38:25;;;;;;;9.32;6.97;;;256.90;1561.60;;;;;;5098155;28;20093;-65
2021/01/25 09:40:51;;;;;;;11.15;7.40;;;256.30;1484.80;;;;;;5106074;28;20830;-70
2021/01/25 09:43:16;;;;;;;11.32;5.88;;;231.20;1587.20;;;;;;5108939;28;20023;-69
2021/01/25 09:45:42;;;;;;;7.82;4.78;;;230.80;1612.80;;;;;;5108022;28;20047;-68
2021/01/25 09:48:08;;;;;;;6.75;4.35;;;231.20;1561.60;;;;;;5102437;28;20103;-68
2021/01/25 09:50:34;;;;;;;11.18;7.97;;;231.30;1561.60;;;;;;5109301;28;20059;-68
2021/01/25 09:52:59;;;;;;;8.93;5.43;;;256.30;1510.40;;;;;;5111363;28;20073;-69
2021/01/25 09:55:25;;;;;;;10.93;5.97;;;256.80;1510.40;;;;;;5110994;28;20096;-70
2021/01/25 09:57:51;;;;;;;7.88;6.05;;;282.10;1459.20;;;;;;5107223;28;20557;-72
2021/01/25 10:00:17;;;;;;;9.02;5.88;;;307.20;1408.00;;;;;;5114325;28;20031;-69
2021/01/25 10:02:42;;;;;;;5.90;4.32;;;307.60;1433.60;;;;;;5099252;28;20031;-69
2021/01/25 10:05:09;;;;;;;15.27;8.40;;;307.90;1356.80;;;;;;5100736;28;20049;-68
2021/01/25 10:07:35;;;;;;;8.40;5.57;;;332.80;1356.80;;;;;;5108345;28;20039;-68
2021/01/25 10:10:09;;;;;;;8.68;5.35;;;384.60;1152.00;;;;;;5092368;28;20035;-69
2021/01/25 10:12:34;;;;;;;12.38;8.57;;;487.00;947.20;;;;;;5093818;28;20048;-69
2021/01/25 10:15:00;;;;;;;14.30;10.10;;;461.50;998.40;;;;;;5106971;28;20214;-73
2021/01/25 10:17:28;;;;;;;9.90;6.90;;;486.50;972.80;;;;;;5115933;28;20019;-69
2021/01/25 10:19:54;;;;;;;23.17;17.13;;;435.80;1024.00;;;;;;5105839;28;20436;-68
2021/01/25 10:22:19;;;;;;;14.45;10.10;;;409.60;1126.40;;;;;;5109014;28;20110;-69
2021/01/25 10:24:45;;;;;;;8.73;7.90;;;359.30;1152.00;;;;;;5116094;28;20024;-68
2021/01/25 10:27:11;;;;;;;12.95;7.63;;;333.60;1177.60;;;;;;5115753;28;20407;-70
2021/01/25 10:29:36;;;;;;;19.30;12.43;;;307.90;1228.80;;;;;;5106177;28;20530;-68
2021/01/25 10:32:02;;;;;;;5.90;3.67;;;282.50;1305.60;;;;;;5110855;28;20477;-68
2021/01/25 10:34:28;;;;;;;6.32;4.40;;;281.60;1382.40;;;;;;5115980;28;20102;-68
2021/01/25 10:36:53;;;;;;;5.43;3.70;;;281.70;1382.40;;;;;;5106386;27;20366;-69
2021/01/25 10:39:20;;;;;;;7.50;4.28;;;281.80;1408.00;;;;;;5111102;28;20023;-68
2021/01/25 10:41:45;;;;;;;9.10;6.30;;;281.60;1433.60;;;;;;5107760;28;20048;-68
2021/01/25 10:44:15;;;;;;;6.05;4.00;;;281.90;1408.00;;;;;;5101549;28;20121;-74
2021/01/25 10:46:41;;;;;;;6.43;4.60;;;307.30;1382.40;;;;;;5103668;28;20524;-69
2021/01/25 10:49:07;;;;;;;11.50;7.78;;;410.00;1126.40;;;;;;5106336;28;20120;-69
2021/01/25 10:51:33;;;;;;;6.65;4.80;;;563.20;870.40;;;;;;5096075;28;20483;-68
2021/01/25 10:53:59;;;;;;;27.08;18.95;;;640.10;742.40;;;;;;5101505;28;20028;-68
2021/01/25 10:56:25;;;;;;;6.45;4.57;;;717.20;665.60;;;;;;5109773;28;20028;-69
2021/01/25 10:58:50;;;;;;;9.32;6.90;;;640.20;716.80;;;;;;5094646;28;20099;-69
2021/01/25 11:01:16;;;;;;;10.00;5.63;;;563.20;844.80;;;;;;5094691;28;20048;-69
2021/01/25 11:03:43;;;;;;;7.68;4.70;;;461.20;947.20;;;;;;5099869;28;20372;-68
2021/01/25 11:06:15;;;;;;;14.60;9.05;;;410.20;1024.00;;;;;;5089596;28;20023;-68
2021/01/25 11:08:41;;;;;;;19.35;10.73;;;384.50;1075.20;;;;;;5102468;28;20495;-68
2021/01/25 11:11:07;;;;;;;31.10;16.95;;;384.40;1100.80;;;;;;5097136;28;20091;-68
2021/01/25 11:13:32;;;;;;;7.43;5.55;;;384.40;1100.80;;;;;;5098187;28;20016;-68
2021/01/25 11:15:58;;;;;;;77.80;35.75;;;384.90;1049.60;;;;;;5096096;28;20043;-72
2021/01/25 11:18:24;;;;;;;16.70;10.45;;;461.50;947.20;;;;;;5109095;28;20020;-69
2021/01/25 11:20:50;;;;;;;6.32;4.57;;;615.10;716.80;;;;;;5095379;28;20020;-68
2021/01/25 11:23:15;;;;;;;10.70;6.72;;;742.50;640.00;;;;;;5108385;28;20114;-69
2021/01/25 11:25:41;;;;;;;10.00;7.22;;;768.20;614.40;;;;;;5100703;28;20036;-68
2021/01/25 11:28:07;;;;;;;9.77;6.70;;;665.90;691.20;;;;;;5115037;28;20058;-69
2021/01/25 11:30:32;;;;;;;8.63;4.70;;;563.40;793.60;;;;;;5102663;28;20043;-72
2021/01/25 11:32:58;;;;;;;9.13;5.85;;;486.50;870.40;;;;;;5101416;28;20503;-69
2021/01/25 11:35:23;;;;;;;57.00;25.88;;;436.10;947.20;;;;;;5095292;28;20028;-70
2021/01/25 11:37:50;;;;;;;6.75;4.75;;;435.70;947.20;;;;;;5113952;27;20051;-69
2021/01/25 11:40:16;;;;;;;6.35;4.25;;;410.30;998.40;;;;;;5101960;28;20027;-71
2021/01/25 11:42:42;;;;;;;6.15;4.50;;;384.70;1024.00;;;;;;5068950;28;20036;-69
2021/01/25 11:45:07;;;;;;;34.45;22.27;;;359.20;1075.20;;;;;;5095590;28;21187;-69
2021/01/25 11:47:33;;;;;;;10.65;6.90;;;358.80;1100.80;;;;;;5098034;28;20488;-74
2021/01/25 11:50:00;;;;;;;7.25;5.15;;;384.70;1024.00;;;;;;5104682;28;20081;-69
2021/01/25 11:52:25;;;;;;;10.95;6.40;;;410.50;972.80;;;;;;5095523;28;20078;-69
2021/01/25 11:54:52;;;;;;;12.18;8.07;;;409.60;1024.00;;;;;;5096810;28;20015;-70
2021/01/25 11:57:18;;;;;;;25.02;16.15;;;384.40;1049.60;;;;;;5086215;28;20532;-69
2021/01/25 11:59:43;;;;;;;16.02;12.20;;;384.00;1075.20;;;;;;5099200;28;20115;-69
2021/01/25 12:02:09;;;;;;;13.65;8.65;;;384.00;1075.20;;;;;;5097487;28;20432;-69
2021/01/25 12:04:35;;;;;;;105.32;72.90;;;359.30;1075.20;;;;;;5112364;28;20066;-68
2021/01/25 12:07:00;;;;;;;9.70;8.05;;;384.90;1049.60;;;;;;5104205;28;20785;-69
2021/01/25 12:09:26;;;;;;;5.95;3.88;;;435.40;998.40;;;;;;5095048;28;20028;-72
2021/01/25 12:11:52;;;;;;;22.52;17.65;;;435.70;947.20;;;;;;5093653;28;20032;-68
2021/01/25 12:14:18;;;;;;;12.35;10.52;;;410.20;998.40;;;;;;5095964;28;20031;-73